sensor_id;sensor_type;location;lat;lon;timestamp;pressure;altitude;pressure_sealevel;temperature;humidity
61359;BME280;47228;46.762;23.598;2023-02-17T00:01:29;98088.21;;;-1.65;83.37
61359;BME280;47228;46.762;23.598;2023-02-17T00:03:58;98088.90;;;-1.62;83.37
61359;BME280;47228;46.762;23.598;2023-02-17T00:06:28;98092.16;;;-1.59;83.36
61359;BME280;47228;46.762;23.598;2023-02-17T00:09:02;98087.41;;;-1.58;83.22
61359;BME280;47228;46.762;23.598;2023-02-17T00:11:30;98084.36;;;-1.59;82.92
61359;BME280;47228;46.762;23.598;2023-02-17T00:13:59;98084.45;;;-1.63;82.67
61359;BME280;47228;46.762;23.598;2023-02-17T00:16:27;98080.38;;;-1.64;82.61
61359;BME280;47228;46.762;23.598;2023-02-17T00:18:59;98078.79;;;-1.64;82.60
61359;BME280;47228;46.762;23.598;2023-02-17T00:21:29;98079.96;;;-1.63;82.43
61359;BME280;47228;46.762;23.598;2023-02-17T00:23:58;98080.61;;;-1.65;82.29
61359;BME280;47228;46.762;23.598;2023-02-17T00:26:27;98075.32;;;-1.66;82.53
61359;BME280;47228;46.762;23.598;2023-02-17T00:28:56;98067.79;;;-1.68;82.67
61359;BME280;47228;46.762;23.598;2023-02-17T00:31:25;98061.63;;;-1.70;82.17
61359;BME280;47228;46.762;23.598;2023-02-17T00:33:54;98058.17;;;-1.73;82.21
61359;BME280;47228;46.762;23.598;2023-02-17T00:36:24;98057.83;;;-1.75;82.20
61359;BME280;47228;46.762;23.598;2023-02-17T00:38:54;98057.59;;;-1.79;82.01
61359;BME280;47228;46.762;23.598;2023-02-17T00:41:24;98054.92;;;-1.83;81.76
61359;BME280;47228;46.762;23.598;2023-02-17T00:43:53;98054.27;;;-1.86;81.77
61359;BME280;47228;46.762;23.598;2023-02-17T00:46:21;98052.68;;;-1.88;82.04
61359;BME280;47228;46.762;23.598;2023-02-17T00:48:49;98049.54;;;-1.88;82.10
61359;BME280;47228;46.762;23.598;2023-02-17T00:51:18;98052.77;;;-1.89;81.98
61359;BME280;47228;46.762;23.598;2023-02-17T00:53:46;98050.26;;;-1.91;82.00
61359;BME280;47228;46.762;23.598;2023-02-17T00:56:14;98045.57;;;-1.93;81.91
61359;BME280;47228;46.762;23.598;2023-02-17T00:58:42;98050.67;;;-1.97;81.61
61359;BME280;47228;46.762;23.598;2023-02-17T01:01:11;98053.10;;;-2.02;81.63
61359;BME280;47228;46.762;23.598;2023-02-17T01:03:40;98047.70;;;-2.04;81.77
61359;BME280;47228;46.762;23.598;2023-02-17T01:06:11;98044.30;;;-2.08;81.26
61359;BME280;47228;46.762;23.598;2023-02-17T01:08:45;98040.38;;;-2.14;81.44
61359;BME280;47228;46.762;23.598;2023-02-17T01:11:21;98033.81;;;-2.17;81.74
61359;BME280;47228;46.762;23.598;2023-02-17T01:13:50;98028.40;;;-2.19;81.95
61359;BME280;47228;46.762;23.598;2023-02-17T01:16:30;98024.23;;;-2.22;81.92
61359;BME280;47228;46.762;23.598;2023-02-17T01:19:04;98014.56;;;-2.23;82.21
61359;BME280;47228;46.762;23.598;2023-02-17T01:21:32;98010.60;;;-2.23;82.13
61359;BME280;47228;46.762;23.598;2023-02-17T01:24:03;98008.79;;;-2.24;82.11
61359;BME280;47228;46.762;23.598;2023-02-17T01:26:32;98006.51;;;-2.26;82.29
61359;BME280;47228;46.762;23.598;2023-02-17T01:29:02;98007.05;;;-2.27;82.27
61359;BME280;47228;46.762;23.598;2023-02-17T01:31:31;98005.41;;;-2.28;82.00
61359;BME280;47228;46.762;23.598;2023-02-17T01:34:01;98005.00;;;-2.30;81.82
61359;BME280;47228;46.762;23.598;2023-02-17T01:36:29;98006.48;;;-2.31;81.86
61359;BME280;47228;46.762;23.598;2023-02-17T01:38:57;98004.64;;;-2.35;81.90
61359;BME280;47228;46.762;23.598;2023-02-17T01:41:26;98005.00;;;-2.38;81.78
61359;BME280;47228;46.762;23.598;2023-02-17T01:44:16;98007.31;;;-2.41;81.97
61359;BME280;47228;46.762;23.598;2023-02-17T01:46:55;98003.06;;;-2.42;82.37
61359;BME280;47228;46.762;23.598;2023-02-17T01:49:28;97998.45;;;-2.41;82.55
61359;BME280;47228;46.762;23.598;2023-02-17T01:52:12;97996.05;;;-2.39;82.58
61359;BME280;47228;46.762;23.598;2023-02-17T01:55:02;97998.01;;;-2.37;82.65
61359;BME280;47228;46.762;23.598;2023-02-17T01:57:34;98005.31;;;-2.35;82.86
61359;BME280;47228;46.762;23.598;2023-02-17T02:00:07;98007.88;;;-2.31;82.86
61359;BME280;47228;46.762;23.598;2023-02-17T02:02:37;98009.27;;;-2.31;82.47
61359;BME280;47228;46.762;23.598;2023-02-17T02:05:06;98008.80;;;-2.35;82.37
61359;BME280;47228;46.762;23.598;2023-02-17T02:07:37;98008.92;;;-2.37;82.47
61359;BME280;47228;46.762;23.598;2023-02-17T02:10:09;98012.36;;;-2.39;82.26
61359;BME280;47228;46.762;23.598;2023-02-17T02:12:39;98012.20;;;-2.41;82.29
61359;BME280;47228;46.762;23.598;2023-02-17T02:15:20;98007.30;;;-2.43;82.27
61359;BME280;47228;46.762;23.598;2023-02-17T02:20:57;98002.33;;;-2.44;82.51
61359;BME280;47228;46.762;23.598;2023-02-17T02:32:01;98005.77;;;-2.41;82.68
61359;BME280;47228;46.762;23.598;2023-02-17T02:34:39;98002.35;;;-2.42;82.65
61359;BME280;47228;46.762;23.598;2023-02-17T02:37:17;98001.85;;;-2.42;82.87
61359;BME280;47228;46.762;23.598;2023-02-17T02:39:51;97991.92;;;-2.41;82.77
61359;BME280;47228;46.762;23.598;2023-02-17T02:42:22;97984.59;;;-2.41;82.79
61359;BME280;47228;46.762;23.598;2023-02-17T02:44:51;97989.16;;;-2.39;82.93
61359;BME280;47228;46.762;23.598;2023-02-17T02:50:16;97982.30;;;-2.40;82.77
61359;BME280;47228;46.762;23.598;2023-02-17T02:52:59;97983.21;;;-2.41;83.03
61359;BME280;47228;46.762;23.598;2023-02-17T02:55:47;97983.08;;;-2.42;82.82
61359;BME280;47228;46.762;23.598;2023-02-17T02:58:21;97984.73;;;-2.48;82.37
61359;BME280;47228;46.762;23.598;2023-02-17T03:01:14;97981.33;;;-2.52;82.50
61359;BME280;47228;46.762;23.598;2023-02-17T03:04:02;97985.34;;;-2.55;82.71
61359;BME280;47228;46.762;23.598;2023-02-17T03:06:46;97988.90;;;-2.59;82.94
61359;BME280;47228;46.762;23.598;2023-02-17T03:09:25;97989.12;;;-2.60;83.10
61359;BME280;47228;46.762;23.598;2023-02-17T03:11:55;97991.73;;;-2.62;82.94
61359;BME280;47228;46.762;23.598;2023-02-17T03:14:24;97994.22;;;-2.66;82.95
61359;BME280;47228;46.762;23.598;2023-02-17T03:16:53;97994.77;;;-2.69;83.07
61359;BME280;47228;46.762;23.598;2023-02-17T03:19:23;97994.08;;;-2.69;83.11
61359;BME280;47228;46.762;23.598;2023-02-17T03:24:55;97993.35;;;-2.74;82.96
61359;BME280;47228;46.762;23.598;2023-02-17T03:27:26;97994.70;;;-2.76;83.18
61359;BME280;47228;46.762;23.598;2023-02-17T03:29:54;97993.86;;;-2.76;83.35
61359;BME280;47228;46.762;23.598;2023-02-17T03:32:22;97993.84;;;-2.76;83.42
61359;BME280;47228;46.762;23.598;2023-02-17T03:34:51;97992.88;;;-2.77;83.25
61359;BME280;47228;46.762;23.598;2023-02-17T03:37:19;97990.12;;;-2.80;83.08
61359;BME280;47228;46.762;23.598;2023-02-17T03:39:47;97991.83;;;-2.82;83.08
61359;BME280;47228;46.762;23.598;2023-02-17T03:42:15;97993.87;;;-2.81;83.30
61359;BME280;47228;46.762;23.598;2023-02-17T03:44:43;97997.30;;;-2.78;83.56
61359;BME280;47228;46.762;23.598;2023-02-17T03:47:11;97992.80;;;-2.76;83.51
61359;BME280;47228;46.762;23.598;2023-02-17T03:49:40;98001.89;;;-2.77;83.13
61359;BME280;47228;46.762;23.598;2023-02-17T03:52:09;98003.00;;;-2.81;83.00
61359;BME280;47228;46.762;23.598;2023-02-17T03:54:37;98005.15;;;-2.84;83.04
61359;BME280;47228;46.762;23.598;2023-02-17T03:57:05;98004.30;;;-2.87;83.02
61359;BME280;47228;46.762;23.598;2023-02-17T03:59:33;97999.65;;;-2.90;83.04
61359;BME280;47228;46.762;23.598;2023-02-17T04:02:02;98000.22;;;-2.93;82.92
61359;BME280;47228;46.762;23.598;2023-02-17T04:04:30;98000.73;;;-2.94;83.37
61359;BME280;47228;46.762;23.598;2023-02-17T04:06:59;98002.73;;;-2.92;83.33
61359;BME280;47228;46.762;23.598;2023-02-17T04:09:26;98003.13;;;-2.90;83.33
61359;BME280;47228;46.762;23.598;2023-02-17T04:11:54;97999.19;;;-2.91;83.03
61359;BME280;47228;46.762;23.598;2023-02-17T04:14:22;97995.69;;;-2.96;83.06
61359;BME280;47228;46.762;23.598;2023-02-17T04:16:50;97998.15;;;-3.02;82.88
61359;BME280;47228;46.762;23.598;2023-02-17T04:19:18;97994.59;;;-3.08;82.83
61359;BME280;47228;46.762;23.598;2023-02-17T04:21:48;97994.39;;;-3.11;83.13
61359;BME280;47228;46.762;23.598;2023-02-17T04:24:16;97999.48;;;-3.14;83.22
61359;BME280;47228;46.762;23.598;2023-02-17T04:26:44;97997.75;;;-3.15;83.62
61359;BME280;47228;46.762;23.598;2023-02-17T04:29:12;97996.56;;;-3.15;83.70
61359;BME280;47228;46.762;23.598;2023-02-17T04:31:40;97989.98;;;-3.15;83.82
61359;BME280;47228;46.762;23.598;2023-02-17T04:34:08;97996.66;;;-3.16;83.53
61359;BME280;47228;46.762;23.598;2023-02-17T04:36:36;97994.66;;;-3.20;83.57
61359;BME280;47228;46.762;23.598;2023-02-17T04:39:04;97987.95;;;-3.21;84.01
61359;BME280;47228;46.762;23.598;2023-02-17T04:41:32;97988.42;;;-3.20;83.92
61359;BME280;47228;46.762;23.598;2023-02-17T04:44:00;97990.31;;;-3.20;84.20
61359;BME280;47228;46.762;23.598;2023-02-17T04:46:28;97989.46;;;-3.18;84.31
61359;BME280;47228;46.762;23.598;2023-02-17T04:48:56;97987.36;;;-3.17;84.29
61359;BME280;47228;46.762;23.598;2023-02-17T04:51:25;97988.82;;;-3.18;84.17
61359;BME280;47228;46.762;23.598;2023-02-17T04:53:53;97984.20;;;-3.19;83.94
61359;BME280;47228;46.762;23.598;2023-02-17T04:56:21;97987.63;;;-3.24;83.78
61359;BME280;47228;46.762;23.598;2023-02-17T04:58:49;97988.66;;;-3.27;83.99
61359;BME280;47228;46.762;23.598;2023-02-17T05:01:17;97985.44;;;-3.28;84.28
61359;BME280;47228;46.762;23.598;2023-02-17T05:03:45;97985.31;;;-3.29;84.09
61359;BME280;47228;46.762;23.598;2023-02-17T05:06:13;97986.31;;;-3.31;84.07
61359;BME280;47228;46.762;23.598;2023-02-17T05:08:42;97983.14;;;-3.32;84.22
61359;BME280;47228;46.762;23.598;2023-02-17T05:11:10;97986.48;;;-3.33;84.33
61359;BME280;47228;46.762;23.598;2023-02-17T05:13:38;97987.26;;;-3.35;83.97
61359;BME280;47228;46.762;23.598;2023-02-17T05:16:06;97990.27;;;-3.36;84.12
61359;BME280;47228;46.762;23.598;2023-02-17T05:18:35;97987.67;;;-3.36;84.48
61359;BME280;47228;46.762;23.598;2023-02-17T05:21:03;97990.40;;;-3.32;84.76
61359;BME280;47228;46.762;23.598;2023-02-17T05:23:31;97989.84;;;-3.34;84.50
61359;BME280;47228;46.762;23.598;2023-02-17T05:25:59;97993.09;;;-3.37;84.63
61359;BME280;47228;46.762;23.598;2023-02-17T05:28:28;97992.72;;;-3.36;84.83
61359;BME280;47228;46.762;23.598;2023-02-17T05:30:59;98000.80;;;-3.35;84.96
61359;BME280;47228;46.762;23.598;2023-02-17T05:33:27;97994.55;;;-3.35;84.69
61359;BME280;47228;46.762;23.598;2023-02-17T05:36:00;97998.61;;;-3.36;84.91
61359;BME280;47228;46.762;23.598;2023-02-17T05:38:29;98005.89;;;-3.39;84.84
61359;BME280;47228;46.762;23.598;2023-02-17T05:40:58;98001.09;;;-3.40;85.16
61359;BME280;47228;46.762;23.598;2023-02-17T05:43:26;98004.58;;;-3.40;85.11
61359;BME280;47228;46.762;23.598;2023-02-17T05:45:54;98006.04;;;-3.39;85.33
61359;BME280;47228;46.762;23.598;2023-02-17T05:48:23;98006.45;;;-3.37;85.26
61359;BME280;47228;46.762;23.598;2023-02-17T05:50:51;98007.17;;;-3.35;85.32
61359;BME280;47228;46.762;23.598;2023-02-17T05:53:19;98012.71;;;-3.32;85.23
61359;BME280;47228;46.762;23.598;2023-02-17T05:55:47;98015.20;;;-3.27;85.40
61359;BME280;47228;46.762;23.598;2023-02-17T05:58:15;98014.48;;;-3.24;85.12
61359;BME280;47228;46.762;23.598;2023-02-17T06:00:43;98013.83;;;-3.19;85.46
61359;BME280;47228;46.762;23.598;2023-02-17T06:03:13;98014.71;;;-3.14;85.46
61359;BME280;47228;46.762;23.598;2023-02-17T06:05:41;98011.08;;;-3.11;85.26
61359;BME280;47228;46.762;23.598;2023-02-17T06:08:09;98013.98;;;-3.11;84.97
61359;BME280;47228;46.762;23.598;2023-02-17T06:10:37;98011.73;;;-3.11;85.14
61359;BME280;47228;46.762;23.598;2023-02-17T06:13:05;98015.56;;;-3.12;84.75
61359;BME280;47228;46.762;23.598;2023-02-17T06:15:33;98016.83;;;-3.09;84.92
61359;BME280;47228;46.762;23.598;2023-02-17T06:18:01;98012.26;;;-3.08;84.51
61359;BME280;47228;46.762;23.598;2023-02-17T06:20:29;98012.59;;;-3.08;84.67
61359;BME280;47228;46.762;23.598;2023-02-17T06:22:57;98013.63;;;-3.08;84.73
61359;BME280;47228;46.762;23.598;2023-02-17T06:25:25;98013.86;;;-3.06;84.87
61359;BME280;47228;46.762;23.598;2023-02-17T06:27:53;98012.09;;;-3.06;84.83
61359;BME280;47228;46.762;23.598;2023-02-17T06:30:21;98008.46;;;-3.06;84.70
61359;BME280;47228;46.762;23.598;2023-02-17T06:32:50;98008.55;;;-3.04;85.21
61359;BME280;47228;46.762;23.598;2023-02-17T06:35:18;98008.64;;;-3.01;85.42
61359;BME280;47228;46.762;23.598;2023-02-17T06:37:46;98017.15;;;-2.95;85.12
61359;BME280;47228;46.762;23.598;2023-02-17T06:40:14;98016.16;;;-2.91;85.26
61359;BME280;47228;46.762;23.598;2023-02-17T06:42:42;98021.02;;;-2.86;85.17
61359;BME280;47228;46.762;23.598;2023-02-17T06:45:13;98022.23;;;-2.80;85.62
61359;BME280;47228;46.762;23.598;2023-02-17T06:47:41;98025.77;;;-2.73;85.67
61359;BME280;47228;46.762;23.598;2023-02-17T06:50:09;98027.27;;;-2.67;85.67
61359;BME280;47228;46.762;23.598;2023-02-17T06:52:38;98030.59;;;-2.60;85.53
61359;BME280;47228;46.762;23.598;2023-02-17T06:55:06;98027.33;;;-2.53;85.65
61359;BME280;47228;46.762;23.598;2023-02-17T06:57:34;98022.79;;;-2.44;85.87
61359;BME280;47228;46.762;23.598;2023-02-17T07:00:03;98024.44;;;-2.35;85.68
61359;BME280;47228;46.762;23.598;2023-02-17T07:02:32;98032.19;;;-2.24;85.99
61359;BME280;47228;46.762;23.598;2023-02-17T07:05:00;98028.79;;;-2.12;86.32
61359;BME280;47228;46.762;23.598;2023-02-17T07:07:28;98029.84;;;-2.02;86.21
61359;BME280;47228;46.762;23.598;2023-02-17T07:09:56;98028.95;;;-1.94;85.76
61359;BME280;47228;46.762;23.598;2023-02-17T07:12:24;98022.98;;;-1.86;85.69
61359;BME280;47228;46.762;23.598;2023-02-17T07:14:53;98019.35;;;-1.76;85.42
61359;BME280;47228;46.762;23.598;2023-02-17T07:17:21;98020.35;;;-1.65;85.34
61359;BME280;47228;46.762;23.598;2023-02-17T07:19:50;98021.13;;;-1.57;85.12
61359;BME280;47228;46.762;23.598;2023-02-17T07:22:18;98019.78;;;-1.50;85.10
61359;BME280;47228;46.762;23.598;2023-02-17T07:24:46;98020.66;;;-1.43;84.91
61359;BME280;47228;46.762;23.598;2023-02-17T07:27:14;98023.14;;;-1.36;84.62
61359;BME280;47228;46.762;23.598;2023-02-17T07:29:42;98021.42;;;-1.32;84.53
61359;BME280;47228;46.762;23.598;2023-02-17T07:32:10;98025.80;;;-1.27;84.37
61359;BME280;47228;46.762;23.598;2023-02-17T07:34:38;98026.77;;;-1.23;84.22
61359;BME280;47228;46.762;23.598;2023-02-17T07:37:07;98025.36;;;-1.18;83.90
61359;BME280;47228;46.762;23.598;2023-02-17T07:39:35;98024.84;;;-1.13;83.65
61359;BME280;47228;46.762;23.598;2023-02-17T07:42:03;98020.83;;;-1.06;83.84
61359;BME280;47228;46.762;23.598;2023-02-17T07:44:32;98017.59;;;-0.97;84.00
61359;BME280;47228;46.762;23.598;2023-02-17T07:47:00;98023.40;;;-0.91;83.46
61359;BME280;47228;46.762;23.598;2023-02-17T07:49:28;98023.63;;;-0.87;83.33
61359;BME280;47228;46.762;23.598;2023-02-17T07:51:56;98025.96;;;-0.81;83.46
61359;BME280;47228;46.762;23.598;2023-02-17T07:54:24;98027.95;;;-0.72;83.44
61359;BME280;47228;46.762;23.598;2023-02-17T07:56:52;98028.20;;;-0.67;82.96
61359;BME280;47228;46.762;23.598;2023-02-17T07:59:20;98027.59;;;-0.63;82.47
61359;BME280;47228;46.762;23.598;2023-02-17T08:01:48;98031.77;;;-0.58;82.44
61359;BME280;47228;46.762;23.598;2023-02-17T08:04:16;98033.88;;;-0.49;82.68
61359;BME280;47228;46.762;23.598;2023-02-17T08:06:44;98029.30;;;-0.37;82.91
61359;BME280;47228;46.762;23.598;2023-02-17T08:09:12;98028.64;;;-0.19;83.08
61359;BME280;47228;46.762;23.598;2023-02-17T08:11:59;98025.99;;;-0.07;82.18
61359;BME280;47228;46.762;23.598;2023-02-17T08:14:45;98027.16;;;0.01;81.96
61359;BME280;47228;46.762;23.598;2023-02-17T08:17:13;98030.26;;;0.06;81.82
61359;BME280;47228;46.762;23.598;2023-02-17T08:19:41;98032.93;;;0.09;81.28
61359;BME280;47228;46.762;23.598;2023-02-17T08:22:16;98034.53;;;0.13;81.38
61359;BME280;47228;46.762;23.598;2023-02-17T08:24:44;98031.20;;;0.23;81.40
61359;BME280;47228;46.762;23.598;2023-02-17T08:27:15;98038.27;;;0.33;80.64
61359;BME280;47228;46.762;23.598;2023-02-17T08:29:44;98040.00;;;0.44;80.75
61359;BME280;47228;46.762;23.598;2023-02-17T08:32:14;98041.11;;;0.57;80.27
61359;BME280;47228;46.762;23.598;2023-02-17T08:34:43;98033.12;;;0.70;80.53
61359;BME280;47228;46.762;23.598;2023-02-17T08:37:11;98033.21;;;0.84;80.11
61359;BME280;47228;46.762;23.598;2023-02-17T08:39:39;98034.20;;;0.95;79.66
61359;BME280;47228;46.762;23.598;2023-02-17T08:42:07;98036.15;;;1.10;79.47
61359;BME280;47228;46.762;23.598;2023-02-17T08:44:35;98031.35;;;1.24;79.19
61359;BME280;47228;46.762;23.598;2023-02-17T08:47:04;98034.77;;;1.36;78.54
61359;BME280;47228;46.762;23.598;2023-02-17T08:49:35;98036.40;;;1.46;78.03
61359;BME280;47228;46.762;23.598;2023-02-17T08:52:03;98030.98;;;1.57;77.53
61359;BME280;47228;46.762;23.598;2023-02-17T08:54:32;98035.06;;;1.62;76.78
61359;BME280;47228;46.762;23.598;2023-02-17T08:57:00;98031.96;;;1.70;77.00
61359;BME280;47228;46.762;23.598;2023-02-17T08:59:28;98028.23;;;1.85;77.07
61359;BME280;47228;46.762;23.598;2023-02-17T09:01:57;98031.80;;;1.95;76.35
61359;BME280;47228;46.762;23.598;2023-02-17T09:04:25;98033.74;;;2.05;75.95
61359;BME280;47228;46.762;23.598;2023-02-17T09:06:54;98026.88;;;2.12;75.81
61359;BME280;47228;46.762;23.598;2023-02-17T09:09:24;98019.80;;;2.25;76.30
61359;BME280;47228;46.762;23.598;2023-02-17T09:11:57;98015.83;;;2.39;75.75
61359;BME280;47228;46.762;23.598;2023-02-17T09:14:26;98017.23;;;2.45;74.69
61359;BME280;47228;46.762;23.598;2023-02-17T09:16:54;98015.52;;;2.48;74.20
61359;BME280;47228;46.762;23.598;2023-02-17T09:19:23;98013.51;;;2.53;74.38
61359;BME280;47228;46.762;23.598;2023-02-17T09:21:51;98014.58;;;2.63;74.73
61359;BME280;47228;46.762;23.598;2023-02-17T09:24:19;98011.69;;;2.74;74.66
61359;BME280;47228;46.762;23.598;2023-02-17T09:26:47;98008.75;;;2.84;73.58
61359;BME280;47228;46.762;23.598;2023-02-17T09:29:17;98009.09;;;2.93;73.64
61359;BME280;47228;46.762;23.598;2023-02-17T09:31:45;98010.20;;;3.03;73.43
61359;BME280;47228;46.762;23.598;2023-02-17T09:34:13;98016.33;;;3.13;73.57
61359;BME280;47228;46.762;23.598;2023-02-17T09:36:41;98016.02;;;3.22;73.75
61359;BME280;47228;46.762;23.598;2023-02-17T09:39:10;98018.73;;;3.32;73.60
61359;BME280;47228;46.762;23.598;2023-02-17T09:44:24;98028.02;;;3.48;72.50
61359;BME280;47228;46.762;23.598;2023-02-17T09:46:59;98025.98;;;3.47;71.49
61359;BME280;47228;46.762;23.598;2023-02-17T09:49:43;98023.86;;;3.48;71.51
61359;BME280;47228;46.762;23.598;2023-02-17T09:52:37;98020.66;;;3.52;71.74
61359;BME280;47228;46.762;23.598;2023-02-17T09:57:36;98016.63;;;3.66;72.00
61359;BME280;47228;46.762;23.598;2023-02-17T10:00:11;98020.64;;;3.69;71.23
61359;BME280;47228;46.762;23.598;2023-02-17T10:05:23;98014.98;;;3.80;71.33
61359;BME280;47228;46.762;23.598;2023-02-17T10:07:58;98013.31;;;3.88;71.54
61359;BME280;47228;46.762;23.598;2023-02-17T10:10:35;98016.75;;;3.98;71.56
61359;BME280;47228;46.762;23.598;2023-02-17T10:13:06;98013.60;;;4.06;71.31
61359;BME280;47228;46.762;23.598;2023-02-17T10:15:42;98009.63;;;4.15;71.15
61359;BME280;47228;46.762;23.598;2023-02-17T10:18:30;98006.59;;;4.25;70.99
61359;BME280;47228;46.762;23.598;2023-02-17T10:21:06;98006.52;;;4.33;70.45
61359;BME280;47228;46.762;23.598;2023-02-17T10:23:39;98006.18;;;4.42;70.29
61359;BME280;47228;46.762;23.598;2023-02-17T10:26:18;98004.55;;;4.52;70.28
61359;BME280;47228;46.762;23.598;2023-02-17T10:40:00;97972.13;;;5.15;68.61
61359;BME280;47228;46.762;23.598;2023-02-17T10:42:33;97972.61;;;5.26;69.01
61359;BME280;47228;46.762;23.598;2023-02-17T10:48:00;97973.19;;;5.61;68.59
61359;BME280;47228;46.762;23.598;2023-02-17T10:50:29;97968.77;;;5.77;68.34
61359;BME280;47228;46.762;23.598;2023-02-17T10:52:58;97963.08;;;5.86;68.23
61359;BME280;47228;46.762;23.598;2023-02-17T10:55:49;97959.59;;;5.95;68.29
61359;BME280;47228;46.762;23.598;2023-02-17T10:58:31;97960.58;;;6.04;67.75
61359;BME280;47228;46.762;23.598;2023-02-17T11:00:59;97956.30;;;6.08;67.30
61359;BME280;47228;46.762;23.598;2023-02-17T11:03:34;97949.45;;;6.08;66.99
61359;BME280;47228;46.762;23.598;2023-02-17T11:09:05;97942.38;;;6.16;67.51
61359;BME280;47228;46.762;23.598;2023-02-17T11:11:35;97938.11;;;6.21;67.69
61359;BME280;47228;46.762;23.598;2023-02-17T11:14:17;97933.17;;;6.26;67.56
61359;BME280;47228;46.762;23.598;2023-02-17T11:16:51;97929.45;;;6.32;67.37
61359;BME280;47228;46.762;23.598;2023-02-17T11:19:22;97926.04;;;6.38;67.31
61359;BME280;47228;46.762;23.598;2023-02-17T11:21:52;97921.66;;;6.44;67.11
61359;BME280;47228;46.762;23.598;2023-02-17T11:24:22;97921.91;;;6.49;66.82
61359;BME280;47228;46.762;23.598;2023-02-17T11:29:29;97916.73;;;6.63;66.96
61359;BME280;47228;46.762;23.598;2023-02-17T11:32:00;97915.05;;;6.69;66.65
61359;BME280;47228;46.762;23.598;2023-02-17T11:34:30;97914.10;;;6.73;66.57
61359;BME280;47228;46.762;23.598;2023-02-17T11:37:23;97913.38;;;6.78;66.92
61359;BME280;47228;46.762;23.598;2023-02-17T11:39:55;97913.64;;;6.83;66.92
61359;BME280;47228;46.762;23.598;2023-02-17T11:42:26;97909.88;;;6.89;66.65
61359;BME280;47228;46.762;23.598;2023-02-17T11:44:59;97906.92;;;6.94;66.49
61359;BME280;47228;46.762;23.598;2023-02-17T11:50:34;97901.92;;;6.91;65.86
61359;BME280;47228;46.762;23.598;2023-02-17T12:06:52;97887.32;;;6.84;64.34
61359;BME280;47228;46.762;23.598;2023-02-17T12:15:09;97882.92;;;6.75;63.51
61359;BME280;47228;46.762;23.598;2023-02-17T12:18:01;97881.34;;;6.70;63.68
61359;BME280;47228;46.762;23.598;2023-02-17T12:23:28;97880.21;;;6.62;63.80
61359;BME280;47228;46.762;23.598;2023-02-17T12:26:14;97876.39;;;6.60;64.02
61359;BME280;47228;46.762;23.598;2023-02-17T12:32:12;97871.60;;;6.53;63.99
61359;BME280;47228;46.762;23.598;2023-02-17T12:34:57;97866.66;;;6.49;63.97
61359;BME280;47228;46.762;23.598;2023-02-17T12:37:33;97863.75;;;6.48;63.91
61359;BME280;47228;46.762;23.598;2023-02-17T12:43:00;97857.36;;;6.47;63.87
61359;BME280;47228;46.762;23.598;2023-02-17T12:45:40;97858.86;;;6.46;63.78
61359;BME280;47228;46.762;23.598;2023-02-17T12:56:01;97860.60;;;6.39;63.53
61359;BME280;47228;46.762;23.598;2023-02-17T12:58:32;97855.83;;;6.36;63.57
61359;BME280;47228;46.762;23.598;2023-02-17T13:01:07;97853.30;;;6.33;63.76
61359;BME280;47228;46.762;23.598;2023-02-17T13:03:37;97853.45;;;6.30;63.71
61359;BME280;47228;46.762;23.598;2023-02-17T13:06:20;97849.52;;;6.28;63.16
61359;BME280;47228;46.762;23.598;2023-02-17T13:09:14;97847.96;;;6.24;62.83
61359;BME280;47228;46.762;23.598;2023-02-17T13:11:44;97847.34;;;6.20;63.00
61359;BME280;47228;46.762;23.598;2023-02-17T13:14:39;97846.27;;;6.17;63.18
61359;BME280;47228;46.762;23.598;2023-02-17T13:17:26;97847.59;;;6.14;63.00
61359;BME280;47228;46.762;23.598;2023-02-17T13:20:24;97848.04;;;6.11;62.65
61359;BME280;47228;46.762;23.598;2023-02-17T13:23:05;97845.16;;;6.08;62.79
61359;BME280;47228;46.762;23.598;2023-02-17T13:25:34;97838.81;;;6.05;62.86
61359;BME280;47228;46.762;23.598;2023-02-17T13:28:32;97840.13;;;6.03;63.03
61359;BME280;47228;46.762;23.598;2023-02-17T13:31:13;97843.41;;;6.00;63.08
61359;BME280;47228;46.762;23.598;2023-02-17T13:33:54;97846.17;;;5.97;63.07
61359;BME280;47228;46.762;23.598;2023-02-17T13:41:58;97851.30;;;5.91;63.39
61359;BME280;47228;46.762;23.598;2023-02-17T13:44:30;97849.20;;;5.90;63.07
61359;BME280;47228;46.762;23.598;2023-02-17T13:47:24;97849.73;;;5.88;62.88
61359;BME280;47228;46.762;23.598;2023-02-17T13:49:55;97847.50;;;5.86;63.02
61359;BME280;47228;46.762;23.598;2023-02-17T13:52:26;97843.27;;;5.84;63.48
61359;BME280;47228;46.762;23.598;2023-02-17T13:54:55;97845.88;;;5.83;63.67
61359;BME280;47228;46.762;23.598;2023-02-17T13:57:29;97845.36;;;5.80;63.64
61359;BME280;47228;46.762;23.598;2023-02-17T14:00:06;97840.46;;;5.79;63.54
61359;BME280;47228;46.762;23.598;2023-02-17T14:02:38;97837.50;;;5.77;63.51
61359;BME280;47228;46.762;23.598;2023-02-17T14:07:48;97830.92;;;5.75;63.37
61359;BME280;47228;46.762;23.598;2023-02-17T14:10:19;97833.85;;;5.73;63.38
61359;BME280;47228;46.762;23.598;2023-02-17T14:12:49;97835.59;;;5.70;63.29
61359;BME280;47228;46.762;23.598;2023-02-17T14:15:19;97831.77;;;5.68;63.44
61359;BME280;47228;46.762;23.598;2023-02-17T14:17:48;97834.09;;;5.65;63.30
61359;BME280;47228;46.762;23.598;2023-02-17T14:20:31;97835.38;;;5.63;63.30
61359;BME280;47228;46.762;23.598;2023-02-17T14:23:09;97836.13;;;5.61;63.35
61359;BME280;47228;46.762;23.598;2023-02-17T14:25:42;97835.72;;;5.58;63.35
61359;BME280;47228;46.762;23.598;2023-02-17T14:30:45;97839.00;;;5.54;63.80
61359;BME280;47228;46.762;23.598;2023-02-17T14:40:50;97831.84;;;5.43;64.62
61359;BME280;47228;46.762;23.598;2023-02-17T14:43:21;97828.60;;;5.40;64.74
61359;BME280;47228;46.762;23.598;2023-02-17T14:45:50;97826.58;;;5.38;65.09
61359;BME280;47228;46.762;23.598;2023-02-17T14:48:18;97827.76;;;5.35;65.07
61359;BME280;47228;46.762;23.598;2023-02-17T14:50:46;97830.61;;;5.33;65.22
61359;BME280;47228;46.762;23.598;2023-02-17T14:53:28;97831.16;;;5.31;65.14
61359;BME280;47228;46.762;23.598;2023-02-17T14:55:58;97824.77;;;5.28;65.36
61359;BME280;47228;46.762;23.598;2023-02-17T14:58:28;97815.74;;;5.27;65.50
61359;BME280;47228;46.762;23.598;2023-02-17T15:00:57;97812.61;;;5.26;65.62